createdAt,value
2023-02-13T00:01:53.419Z,103792.44
2023-02-13T00:04:20.075Z,103796.41
2023-02-13T00:06:47.876Z,103794.47
2023-02-13T00:09:14.883Z,103786.31
2023-02-13T00:11:41.419Z,103783.31
2023-02-13T00:14:08.548Z,103792.66
2023-02-13T00:16:35.081Z,103785.69
2023-02-13T00:19:01.628Z,103783.00
2023-02-13T00:21:28.032Z,103777.94
2023-02-13T00:23:54.412Z,103779.47
2023-02-13T00:26:20.938Z,103781.81
2023-02-13T00:28:48.191Z,103779.88
2023-02-13T00:31:18.559Z,103781.94
2023-02-13T00:33:45.637Z,103776.66
2023-02-13T00:36:15.187Z,103779.66
2023-02-13T00:38:42.533Z,103775.28
2023-02-13T00:41:09.712Z,103773.56
2023-02-13T00:43:36.783Z,103772.66
2023-02-13T00:46:04.174Z,103778.03
2023-02-13T00:48:32.718Z,103783.31
2023-02-13T00:50:59.848Z,103774.28
2023-02-13T00:53:29.109Z,103774.09
2023-02-13T00:55:55.594Z,103771.19
2023-02-13T00:58:23.362Z,103770.31
2023-02-13T01:00:52.651Z,103766.78
2023-02-13T01:03:20.631Z,103768.81
2023-02-13T01:05:47.385Z,103768.94
2023-02-13T01:08:15.535Z,103771.59
2023-02-13T01:10:42.765Z,103767.00
2023-02-13T01:13:10.692Z,103770.44
2023-02-13T01:15:37.529Z,103766.91
2023-02-13T01:18:04.048Z,103768.59
2023-02-13T01:20:30.687Z,103763.22
2023-02-13T01:22:58.147Z,103774.94
2023-02-13T01:25:25.212Z,103769.78
2023-02-13T01:27:51.640Z,103763.88
2023-02-13T01:30:19.124Z,103758.53
2023-02-13T01:32:47.767Z,103767.31
2023-02-13T01:35:15.559Z,103768.94
2023-02-13T01:37:42.692Z,103762.50
2023-02-13T01:40:12.731Z,103762.78
2023-02-13T01:42:39.224Z,103763.69
2023-02-13T01:45:06.988Z,103759.81
2023-02-13T01:47:45.310Z,103762.59
2023-02-13T01:50:22.115Z,103756.38
2023-02-13T01:52:57.227Z,103760.56
2023-02-13T01:55:25.630Z,103764.00
2023-02-13T01:58:22.730Z,103758.41
2023-02-13T02:00:49.863Z,103750.25
2023-02-13T02:03:23.767Z,103757.34
2023-02-13T02:05:52.307Z,103756.38
2023-02-13T02:08:19.839Z,103757.34
2023-02-13T02:10:52.663Z,103752.81
2023-02-13T02:13:21.097Z,103758.06
2023-02-13T02:15:49.121Z,103762.59
2023-02-13T02:18:16.989Z,103758.97
2023-02-13T02:21:17.508Z,103750.69
2023-02-13T02:23:59.687Z,103750.03
2023-02-13T02:26:35.249Z,103753.81
2023-02-13T02:29:18.255Z,103754.00
2023-02-13T02:32:10.815Z,103752.06
2023-02-13T02:35:18.687Z,103748.75
2023-02-13T02:38:09.145Z,103737.13
2023-02-13T02:41:40.222Z,103745.50
2023-02-13T02:44:21.993Z,103733.72
2023-02-13T02:47:15.243Z,103732.63
2023-02-13T02:49:58.690Z,103736.19
2023-02-13T02:52:48.151Z,103742.28
2023-02-13T02:55:27.980Z,103733.06
2023-02-13T02:58:36.466Z,103743.81
2023-02-13T03:01:28.336Z,103737.38
2023-02-13T03:04:16.543Z,103740.25
2023-02-13T03:06:51.690Z,103734.47
2023-02-13T03:09:49.258Z,103739.81
2023-02-13T03:12:57.166Z,103742.75
2023-02-13T03:15:27.288Z,103742.75
2023-02-13T03:18:13.574Z,103739.16
2023-02-13T03:21:04.396Z,103732.09
2023-02-13T03:23:45.616Z,103736.28
2023-02-13T03:26:45.432Z,103735.22
2023-02-13T03:29:45.648Z,103726.97
2023-02-13T03:32:34.204Z,103732.97
2023-02-13T03:35:47.088Z,103729.75
2023-02-13T03:38:22.420Z,103725.16
2023-02-13T03:41:10.508Z,103729.41
2023-02-13T03:43:46.295Z,103732.44
2023-02-13T03:46:14.850Z,103727.69
2023-02-13T03:49:01.661Z,103722.22
2023-02-13T03:51:34.870Z,103725.75
2023-02-13T03:54:07.076Z,103726.41
2023-02-13T03:56:54.032Z,103724.59
2023-02-13T03:59:26.615Z,103719.47
2023-02-13T04:02:16.974Z,103722.53
2023-02-13T04:04:54.057Z,103725.94
2023-02-13T04:07:32.768Z,103728.63
2023-02-13T04:10:03.816Z,103716.97
2023-02-13T04:12:39.314Z,103725.31
2023-02-13T04:15:16.380Z,103720.91
2023-02-13T04:17:48.885Z,103719.06
2023-02-13T04:20:15.894Z,103718.78
2023-02-13T04:22:43.991Z,103712.53
2023-02-13T04:25:12.608Z,103716.97
2023-02-13T04:27:39.084Z,103714.06
2023-02-13T04:30:06.568Z,103712.66
2023-02-13T04:32:33.014Z,103712.84
2023-02-13T04:34:59.500Z,103710.19
2023-02-13T04:37:25.931Z,103702.91
2023-02-13T04:39:52.300Z,103708.91
2023-02-13T04:42:18.651Z,103716.09
2023-02-13T04:44:45.050Z,103709.78
2023-02-13T04:47:11.563Z,103718.22
2023-02-13T04:49:38.026Z,103710.63
2023-02-13T04:52:04.647Z,103708.28
2023-02-13T04:54:31.037Z,103704.63
2023-02-13T04:56:57.400Z,103701.19
2023-02-13T04:59:23.805Z,103701.47
2023-02-13T05:01:50.224Z,103700.53
2023-02-13T05:04:17.483Z,103692.38
2023-02-13T05:06:43.981Z,103694.75
2023-02-13T05:09:10.996Z,103696.38
2023-02-13T05:11:37.479Z,103695.19
2023-02-13T05:14:03.930Z,103696.78
2023-02-13T05:16:30.436Z,103693.38
2023-02-13T05:18:56.994Z,103695.94
2023-02-13T05:21:42.181Z,103697.75
2023-02-13T05:24:08.651Z,103695.28
2023-02-13T05:26:35.065Z,103688.97
2023-02-13T05:29:19.189Z,103694.22
2023-02-13T05:31:51.881Z,103695.94
2023-02-13T05:34:18.638Z,103691.41
2023-02-13T05:36:45.044Z,103695.72
2023-02-13T05:39:11.441Z,103696.69
2023-02-13T05:41:37.885Z,103694.09
2023-02-13T05:44:04.664Z,103690.69
2023-02-13T05:46:31.090Z,103695.94
2023-02-13T05:48:57.543Z,103693.03
2023-02-13T05:51:23.993Z,103691.22
2023-02-13T05:53:50.687Z,103695.53
2023-02-13T05:56:17.080Z,103700.22
2023-02-13T05:58:45.020Z,103695.94
2023-02-13T06:01:11.442Z,103694.09
2023-02-13T06:03:37.895Z,103693.78
2023-02-13T06:06:04.512Z,103700.22
2023-02-13T06:08:30.999Z,103699.56
2023-02-13T06:10:57.773Z,103698.72
2023-02-13T06:13:24.336Z,103698.59
2023-02-13T06:15:50.855Z,103692.91
2023-02-13T06:18:17.396Z,103694.66
2023-02-13T06:20:43.853Z,103691.22
2023-02-13T06:23:10.271Z,103692.91
2023-02-13T06:25:36.738Z,103688.41
2023-02-13T06:28:04.929Z,103694.44
2023-02-13T06:30:31.909Z,103697.88
2023-02-13T06:32:58.515Z,103703.88
2023-02-13T06:35:25.282Z,103703.03
2023-02-13T06:37:51.730Z,103705.59
2023-02-13T06:40:18.715Z,103701.28
2023-02-13T06:42:45.853Z,103704.09
2023-02-13T06:45:13.445Z,103705.72
2023-02-13T06:47:47.984Z,103706.44
2023-02-13T06:50:16.579Z,103707.31
2023-02-13T06:52:47.862Z,103703.69
2023-02-13T06:55:14.967Z,103710.75
2023-02-13T06:57:42.670Z,103706.97
2023-02-13T07:00:13.089Z,103700.69
2023-02-13T07:02:45.112Z,103693.50
2023-02-13T07:05:12.132Z,103706.78
2023-02-13T07:07:40.560Z,103699.91
2023-02-13T07:10:09.550Z,103704.75
2023-02-13T07:12:36.612Z,103709.13
2023-02-13T07:15:04.735Z,103705.41
2023-02-13T07:17:31.338Z,103707.97
2023-02-13T07:20:01.387Z,103714.81
2023-02-13T07:22:27.942Z,103712.91
2023-02-13T07:24:54.392Z,103714.63
2023-02-13T07:27:20.862Z,103718.03
2023-02-13T07:29:47.245Z,103722.66
2023-02-13T07:32:13.604Z,103725.22
2023-02-13T07:34:46.502Z,103719.78
2023-02-13T07:37:18.788Z,103727.59
2023-02-13T07:39:45.242Z,103721.28
2023-02-13T07:42:11.676Z,103723.00
2023-02-13T07:44:38.160Z,103723.84
2023-02-13T07:47:04.700Z,103730.84
2023-02-13T07:49:31.189Z,103730.06
2023-02-13T07:51:58.400Z,103724.06
2023-02-13T07:54:24.895Z,103725.78
2023-02-13T07:56:51.407Z,103723.97
2023-02-13T07:59:17.786Z,103733.72
2023-02-13T08:01:44.307Z,103744.25
2023-02-13T08:04:10.855Z,103737.13
2023-02-13T08:06:40.363Z,103741.66
2023-02-13T08:09:25.468Z,103741.13
2023-02-13T08:11:53.954Z,103744.00
2023-02-13T08:14:25.087Z,103756.03
2023-02-13T08:16:52.599Z,103748.31
2023-02-13T08:19:19.607Z,103753.75
2023-02-13T08:21:46.476Z,103757.31
2023-02-13T08:24:13.471Z,103750.78
2023-02-13T08:26:40.296Z,103749.03
2023-02-13T08:29:07.409Z,103748.38
2023-02-13T08:31:34.147Z,103749.56
2023-02-13T08:34:00.728Z,103746.78
2023-02-13T08:36:27.650Z,103742.28
2023-02-13T08:38:54.261Z,103743.03
2023-02-13T08:41:22.157Z,103733.91
2023-02-13T08:43:50.146Z,103739.09
2023-02-13T08:46:18.132Z,103742.28
2023-02-13T08:48:44.931Z,103751.84
2023-02-13T08:51:13.462Z,103753.25
2023-02-13T08:53:40.146Z,103747.66
2023-02-13T08:56:07.188Z,103747.03
2023-02-13T08:58:33.967Z,103743.69
2023-02-13T09:01:00.590Z,103750.22
2023-02-13T09:03:27.043Z,103741.13
2023-02-13T09:05:53.425Z,103741.97
2023-02-13T09:08:19.948Z,103741.13
2023-02-13T09:10:46.396Z,103732.97
2023-02-13T09:13:12.791Z,103738.88
2023-02-13T09:15:40.566Z,103751.44
2023-02-13T09:18:08.083Z,103745.09
2023-02-13T09:20:35.998Z,103745.97
2023-02-13T09:23:03.729Z,103747.66
2023-02-13T09:25:30.125Z,103748.44
2023-02-13T09:27:56.617Z,103749.69
2023-02-13T09:30:23.852Z,103753.03
2023-02-13T09:32:51.582Z,103748.44
2023-02-13T09:35:19.182Z,103745.75
2023-02-13T09:37:45.805Z,103747.47
2023-02-13T09:40:20.384Z,103745.22
2023-02-13T09:42:49.296Z,103750.59
2023-02-13T09:45:20.512Z,103748.75
2023-02-13T09:47:48.236Z,103747.97
2023-02-13T09:50:28.695Z,103738.22
2023-02-13T09:52:57.143Z,103738.88
2023-02-13T09:55:52.863Z,103738.47
2023-02-13T09:58:35.569Z,103738.47
2023-02-13T10:01:05.958Z,103733.53
2023-02-13T10:03:42.164Z,103734.94
2023-02-13T10:06:18.191Z,103734.81
2023-02-13T10:08:56.634Z,103732.25
2023-02-13T10:11:44.792Z,103732.75
2023-02-13T10:14:37.412Z,103743.69
2023-02-13T10:17:21.152Z,103728.97
2023-02-13T10:19:55.288Z,103743.91
2023-02-13T10:22:27.917Z,103730.88
2023-02-13T10:25:10.889Z,103730.72
2023-02-13T10:28:23.681Z,103722.91
2023-02-13T10:30:54.875Z,103721.28
2023-02-13T10:33:36.619Z,103721.06
2023-02-13T10:36:25.259Z,103723.53
2023-02-13T10:39:00.707Z,103729.13
2023-02-13T10:41:50.832Z,103719.28
2023-02-13T10:44:54.252Z,103725.66
2023-02-13T10:47:29.759Z,103717.75
2023-02-13T10:50:10.860Z,103713.84
2023-02-13T10:53:07.986Z,103711.44
2023-02-13T10:56:00.246Z,103723.44
2023-02-13T10:58:45.347Z,103716.63
2023-02-13T11:01:22.767Z,103718.34
2023-02-13T11:04:03.566Z,103713.31
2023-02-13T11:06:30.226Z,103705.88
2023-02-13T11:08:56.707Z,103694.88
2023-02-13T11:11:35.719Z,103690.53
2023-02-13T11:14:20.161Z,103702.66
2023-02-13T11:16:52.108Z,103693.34
2023-02-13T11:19:20.272Z,103690.06
2023-02-13T11:21:48.669Z,103688.25
2023-02-13T11:24:24.238Z,103692.28
2023-02-13T11:26:58.639Z,103682.50
2023-02-13T11:29:29.414Z,103688.00
2023-02-13T11:32:15.876Z,103677.97
2023-02-13T11:34:42.345Z,103671.22
2023-02-13T11:37:19.454Z,103666.53
2023-02-13T11:39:50.204Z,103667.66
2023-02-13T11:42:28.365Z,103654.56
2023-02-13T11:45:00.374Z,103652.47
2023-02-13T11:47:49.154Z,103651.66
2023-02-13T11:50:25.859Z,103655.31
2023-02-13T11:52:58.721Z,103659.13
2023-02-13T11:55:34.402Z,103645.66
2023-02-13T11:58:22.800Z,103655.44
2023-02-13T12:00:49.284Z,103646.97
2023-02-13T12:03:27.520Z,103644.03
2023-02-13T12:06:05.412Z,103645.97
2023-02-13T12:08:34.851Z,103640.22
2023-02-13T12:11:07.741Z,103640.34
2023-02-13T12:13:38.958Z,103632.94
2023-02-13T12:16:21.080Z,103632.91
2023-02-13T12:18:54.594Z,103637.66
2023-02-13T12:21:31.692Z,103632.34
2023-02-13T12:24:16.237Z,103631.84
2023-02-13T12:26:47.637Z,103625.81
2023-02-13T12:29:46.398Z,103628.63
2023-02-13T12:32:29.199Z,103630.59
2023-02-13T12:35:20.494Z,103629.06
2023-02-13T12:37:57.845Z,103619.16
2023-02-13T12:40:39.159Z,103623.41
2023-02-13T12:43:35.960Z,103625.47
2023-02-13T12:46:15.156Z,103622.38
2023-02-13T12:49:09.127Z,103623.56
2023-02-13T12:52:00.555Z,103626.13
2023-02-13T12:54:39.047Z,103623.63
2023-02-13T12:57:16.081Z,103616.09
2023-02-13T12:59:54.298Z,103620.50
2023-02-13T13:03:09.278Z,103615.72
2023-02-13T13:06:10.929Z,103608.97
2023-02-13T13:08:55.224Z,103616.03
2023-02-13T13:11:53.728Z,103605.81
2023-02-13T13:14:28.897Z,103597.53
2023-02-13T13:17:21.582Z,103598.38
2023-02-13T13:20:17.128Z,103598.81
2023-02-13T13:23:22.375Z,103586.34
2023-02-13T13:26:01.653Z,103585.47
2023-02-13T13:28:50.600Z,103585.91
2023-02-13T13:31:17.432Z,103579.75
2023-02-13T13:33:46.105Z,103578.28
2023-02-13T13:36:44.211Z,103579.75
2023-02-13T13:39:46.735Z,103575.81
2023-02-13T13:42:25.228Z,103575.25
2023-02-13T13:45:22.257Z,103567.25
2023-02-13T13:48:10.052Z,103560.75
2023-02-13T13:50:41.717Z,103555.81
2023-02-13T13:53:20.789Z,103557.94
2023-02-13T13:55:47.400Z,103550.19
2023-02-13T13:58:43.915Z,103537.00
2023-02-13T14:01:26.066Z,103543.53
2023-02-13T14:03:55.200Z,103540.72
2023-02-13T14:06:25.687Z,103539.88
2023-02-13T14:09:00.723Z,103542.38
2023-02-13T14:11:35.422Z,103534.97
2023-02-13T14:14:02.721Z,103536.66
2023-02-13T14:16:42.807Z,103533.69
2023-02-13T14:19:33.273Z,103530.25
2023-02-13T14:22:24.277Z,103531.25
2023-02-13T14:24:58.892Z,103536.06
2023-02-13T14:27:37.714Z,103540.34
2023-02-13T14:30:27.882Z,103542.31
2023-02-13T14:32:55.234Z,103539.75
2023-02-13T14:35:31.800Z,103536.91
2023-02-13T14:38:01.122Z,103545.28
2023-02-13T14:40:49.385Z,103548.00
2023-02-13T14:43:42.179Z,103538.91
2023-02-13T14:46:26.711Z,103540.59
2023-02-13T14:48:57.342Z,103534.22
2023-02-13T14:51:40.219Z,103536.81
2023-02-13T14:54:24.103Z,103535.81
2023-02-13T14:56:53.490Z,103531.66
2023-02-13T14:59:24.955Z,103532.06
2023-02-13T15:01:59.079Z,103525.81
2023-02-13T15:04:35.569Z,103529.13
2023-02-13T15:07:05.563Z,103533.63
2023-02-13T15:09:39.501Z,103516.47
2023-02-13T15:12:29.975Z,103527.28
2023-02-13T15:14:57.466Z,103512.78
2023-02-13T15:17:40.252Z,103521.03
2023-02-13T15:20:16.970Z,103514.19
2023-02-13T15:22:46.755Z,103514.31
2023-02-13T15:25:29.695Z,103512.28
2023-02-13T15:27:58.568Z,103514.84
2023-02-13T15:30:33.442Z,103514.00
2023-02-13T15:33:20.681Z,103510.44
2023-02-13T15:35:53.699Z,103509.56
2023-02-13T15:38:20.972Z,103518.25
2023-02-13T15:40:51.393Z,103512.16
2023-02-13T15:43:25.625Z,103512.00
2023-02-13T15:45:52.076Z,103510.31
2023-02-13T15:48:18.689Z,103513.00
2023-02-13T15:50:47.488Z,103516.81
2023-02-13T15:53:17.914Z,103510.44
2023-02-13T15:56:00.442Z,103511.31
2023-02-13T15:58:31.514Z,103507.63
2023-02-13T16:01:04.602Z,103509.56
2023-02-13T16:03:32.931Z,103514.72
2023-02-13T16:05:59.765Z,103515.13
2023-02-13T16:08:35.997Z,103514.97
2023-02-13T16:11:31.648Z,103511.69
2023-02-13T16:14:00.773Z,103505.84
2023-02-13T16:16:29.307Z,103518.63
2023-02-13T16:18:56.273Z,103511.63
2023-02-13T16:21:24.520Z,103504.81
2023-02-13T16:23:59.591Z,103508.94
2023-02-13T16:26:26.543Z,103507.09
2023-02-13T16:28:53.158Z,103504.66
2023-02-13T16:31:21.591Z,103501.09
2023-02-13T16:33:48.221Z,103502.09
2023-02-13T16:36:14.557Z,103497.56
2023-02-13T16:38:47.136Z,103497.72
2023-02-13T16:41:19.669Z,103496.72
2023-02-13T16:43:48.127Z,103489.88
2023-02-13T16:46:35.370Z,103492.81
2023-02-13T16:49:08.018Z,103500.91
2023-02-13T16:51:42.157Z,103494.94
2023-02-13T16:54:11.316Z,103494.09
2023-02-13T16:56:39.616Z,103498.88
2023-02-13T16:59:24.156Z,103501.72
2023-02-13T17:02:10.952Z,103496.84
2023-02-13T17:04:39.175Z,103500.78
2023-02-13T17:07:13.031Z,103504.34
2023-02-13T17:09:39.526Z,103507.81
2023-02-13T17:12:13.480Z,103504.75
2023-02-13T17:14:40.116Z,103506.00
2023-02-13T17:17:12.430Z,103510.78
2023-02-13T17:19:39.134Z,103502.38
2023-02-13T17:22:06.560Z,103510.69
2023-02-13T17:24:33.013Z,103502.75
2023-02-13T17:26:59.427Z,103510.97
2023-02-13T17:29:26.606Z,103505.72
2023-02-13T17:31:56.365Z,103504.16
2023-02-13T17:34:22.909Z,103510.63
2023-02-13T17:36:49.387Z,103504.50
2023-02-13T17:39:15.929Z,103507.50
2023-02-13T17:41:42.847Z,103507.88
2023-02-13T17:44:12.991Z,103510.09
2023-02-13T17:46:39.909Z,103512.19
2023-02-13T17:49:06.348Z,103507.06
2023-02-13T17:51:32.986Z,103506.47
2023-02-13T17:53:59.510Z,103507.56
2023-02-13T17:56:25.965Z,103504.41
2023-02-13T17:58:52.382Z,103503.19
2023-02-13T18:01:18.834Z,103508.84
2023-02-13T18:03:45.497Z,103499.41
2023-02-13T18:06:13.061Z,103503.94
2023-02-13T18:08:39.532Z,103511.28
2023-02-13T18:11:10.697Z,103510.56
2023-02-13T18:13:37.140Z,103504.69
2023-02-13T18:16:08.623Z,103512.03
2023-02-13T18:18:35.091Z,103506.03
2023-02-13T18:21:01.507Z,103514.50
2023-02-13T18:23:28.004Z,103517.56
2023-02-13T18:25:54.723Z,103517.19
2023-02-13T18:28:21.340Z,103521.72
2023-02-13T18:30:47.854Z,103519.41
2023-02-13T18:33:14.362Z,103516.84
2023-02-13T18:35:41.006Z,103512.44
2023-02-13T18:38:07.419Z,103509.16
2023-02-13T18:40:33.814Z,103503.03
2023-02-13T18:43:00.755Z,103502.28
2023-02-13T18:45:27.709Z,103516.72
2023-02-13T18:47:54.402Z,103512.34
2023-02-13T18:50:20.912Z,103506.19
2023-02-13T18:52:47.296Z,103504.63
2023-02-13T18:55:13.674Z,103505.72
2023-02-13T18:57:43.275Z,103505.13
2023-02-13T19:00:10.931Z,103506.34
2023-02-13T19:02:37.464Z,103504.25
2023-02-13T19:05:03.949Z,103514.41
2023-02-13T19:07:30.328Z,103507.69
2023-02-13T19:09:56.750Z,103511.47
2023-02-13T19:12:23.294Z,103508.16
2023-02-13T19:14:49.737Z,103512.06
2023-02-13T19:17:16.190Z,103512.44
2023-02-13T19:19:46.183Z,103510.13
2023-02-13T19:22:12.593Z,103509.50
2023-02-13T19:24:39.037Z,103511.47
2023-02-13T19:27:05.483Z,103511.56
2023-02-13T19:29:31.909Z,103514.25
2023-02-13T19:31:58.320Z,103513.53
2023-02-13T19:34:24.788Z,103522.59
2023-02-13T19:36:51.191Z,103515.47
2023-02-13T19:39:17.829Z,103510.34
2023-02-13T19:41:44.510Z,103513.16
2023-02-13T19:44:11.147Z,103510.59
2023-02-13T19:46:38.186Z,103515.22
2023-02-13T19:49:04.975Z,103511.69
2023-02-13T19:51:32.718Z,103509.22
2023-02-13T19:54:01.995Z,103513.75
2023-02-13T19:56:29.806Z,103514.72
2023-02-13T19:58:56.698Z,103504.22
2023-02-13T20:01:25.285Z,103517.63
2023-02-13T20:03:52.123Z,103516.06
2023-02-13T20:06:25.120Z,103516.16
2023-02-13T20:08:52.764Z,103514.59
2023-02-13T20:11:21.930Z,103516.53
2023-02-13T20:13:52.377Z,103517.63
2023-02-13T20:16:18.823Z,103523.00
2023-02-13T20:18:45.233Z,103524.09
2023-02-13T20:21:14.789Z,103521.28
2023-02-13T20:23:42.796Z,103522.38
2023-02-13T20:26:13.734Z,103533.13
2023-02-13T20:28:44.712Z,103525.16
2023-02-13T20:31:14.264Z,103527.00
2023-02-13T20:33:41.765Z,103524.44
2023-02-13T20:36:10.292Z,103518.22
2023-02-13T20:38:36.876Z,103532.50
2023-02-13T20:41:15.566Z,103520.28
2023-02-13T20:43:42.456Z,103531.25
2023-02-13T20:46:09.795Z,103530.75
2023-02-13T20:48:38.193Z,103532.81
2023-02-13T20:51:09.024Z,103526.09
2023-02-13T20:53:35.534Z,103526.41
2023-02-13T20:56:13.324Z,103519.69
2023-02-13T20:58:40.749Z,103520.88
2023-02-13T21:01:14.972Z,103517.47
2023-02-13T21:03:42.188Z,103524.91
2023-02-13T21:06:09.917Z,103524.13
2023-02-13T21:08:37.126Z,103520.94
2023-02-13T21:11:05.588Z,103531.03
2023-02-13T21:13:33.053Z,103523.31
2023-02-13T21:16:07.678Z,103529.88
2023-02-13T21:18:35.503Z,103526.69
2023-02-13T21:21:02.458Z,103531.06
2023-02-13T21:23:28.940Z,103533.13
2023-02-13T21:25:55.611Z,103536.88
2023-02-13T21:28:22.344Z,103540.31
2023-02-13T21:30:48.765Z,103539.22
2023-02-13T21:33:15.155Z,103547.19
2023-02-13T21:35:41.574Z,103543.50
2023-02-13T21:38:08.049Z,103539.00
2023-02-13T21:40:34.446Z,103536.44
2023-02-13T21:43:00.868Z,103533.84
2023-02-13T21:45:27.428Z,103534.09
2023-02-13T21:47:56.850Z,103534.09
2023-02-13T21:50:23.620Z,103536.03
2023-02-13T21:52:49.999Z,103530.03
2023-02-13T21:55:16.639Z,103533.81
2023-02-13T21:57:43.015Z,103531.22
2023-02-13T22:00:10.571Z,103527.03
2023-02-13T22:02:39.816Z,103521.03
2023-02-13T22:05:06.685Z,103522.00
2023-02-13T22:07:53.104Z,103511.41
2023-02-13T22:10:19.508Z,103515.06
2023-02-13T22:12:50.710Z,103517.75
2023-02-13T22:15:17.285Z,103509.78
2023-02-13T22:17:43.685Z,103518.81
2023-02-13T22:20:10.516Z,103514.44
2023-02-13T22:22:36.873Z,103505.63
2023-02-13T22:25:03.452Z,103507.56
2023-02-13T22:27:29.826Z,103507.66
2023-02-13T22:29:56.230Z,103504.25
2023-02-13T22:32:22.848Z,103503.50
2023-02-13T22:34:49.387Z,103503.72
2023-02-13T22:37:15.811Z,103508.47
2023-02-13T22:39:42.273Z,103511.16
2023-02-13T22:42:08.733Z,103499.88
2023-02-13T22:44:35.148Z,103498.38
2023-02-13T22:47:01.575Z,103506.53
2023-02-13T22:49:28.006Z,103500.41
2023-02-13T22:51:54.404Z,103499.56
2023-02-13T22:54:20.887Z,103495.31
2023-02-13T22:56:47.276Z,103496.38
2023-02-13T22:59:13.753Z,103495.63
2023-02-13T23:01:40.112Z,103491.47
2023-02-13T23:04:06.558Z,103494.34
2023-02-13T23:06:32.960Z,103491.03
2023-02-13T23:08:59.478Z,103487.50
2023-02-13T23:11:46.716Z,103488.34
2023-02-13T23:14:13.752Z,103490.91
2023-02-13T23:16:59.900Z,103491.75
2023-02-13T23:19:27.335Z,103493.59
2023-02-13T23:21:53.851Z,103480.41
2023-02-13T23:24:20.254Z,103480.41
2023-02-13T23:26:46.719Z,103484.03
2023-02-13T23:29:13.344Z,103468.22
2023-02-13T23:31:39.862Z,103469.06
2023-02-13T23:34:06.363Z,103466.72
2023-02-13T23:36:34.715Z,103463.38
2023-02-13T23:39:01.089Z,103466.16
2023-02-13T23:41:27.612Z,103458.97
2023-02-13T23:43:54.063Z,103459.22
2023-02-13T23:46:20.568Z,103458.44
2023-02-13T23:48:47.064Z,103469.16
2023-02-13T23:51:13.502Z,103461.97
2023-02-13T23:53:39.948Z,103470.78
2023-02-13T23:56:06.932Z,103464.44
2023-02-13T23:58:33.429Z,103475.16
